sensor_id;sensor_type;location;lat;lon;timestamp;P1;durP1;ratioP1;P2;durP2;ratioP2
19095;SDS011;9680;52.520;13.332;2024-03-22T00:01:45;15.77;;;7.50;;
19095;SDS011;9680;52.520;13.332;2024-03-22T00:04:13;16.20;;;7.30;;
19095;SDS011;9680;52.520;13.332;2024-03-22T00:06:40;14.97;;;7.50;;
19095;SDS011;9680;52.520;13.332;2024-03-22T00:09:07;16.97;;;7.67;;
19095;SDS011;9680;52.520;13.332;2024-03-22T00:11:33;16.53;;;7.97;;
19095;SDS011;9680;52.520;13.332;2024-03-22T00:14:00;18.33;;;8.17;;
19095;SDS011;9680;52.520;13.332;2024-03-22T00:16:26;16.60;;;7.80;;
19095;SDS011;9680;52.520;13.332;2024-03-22T00:18:53;15.97;;;7.07;;
19095;SDS011;9680;52.520;13.332;2024-03-22T00:21:20;17.37;;;7.77;;
19095;SDS011;9680;52.520;13.332;2024-03-22T00:23:47;16.43;;;7.30;;
19095;SDS011;9680;52.520;13.332;2024-03-22T00:26:13;19.10;;;8.43;;
19095;SDS011;9680;52.520;13.332;2024-03-22T00:28:40;17.33;;;7.93;;
19095;SDS011;9680;52.520;13.332;2024-03-22T00:31:05;17.10;;;7.50;;
19095;SDS011;9680;52.520;13.332;2024-03-22T00:33:32;16.00;;;7.37;;
19095;SDS011;9680;52.520;13.332;2024-03-22T00:35:57;15.80;;;7.60;;
19095;SDS011;9680;52.520;13.332;2024-03-22T00:38:25;17.13;;;8.40;;
19095;SDS011;9680;52.520;13.332;2024-03-22T00:40:51;15.33;;;7.17;;
19095;SDS011;9680;52.520;13.332;2024-03-22T00:43:19;19.43;;;8.30;;
19095;SDS011;9680;52.520;13.332;2024-03-22T00:45:45;16.30;;;6.97;;
19095;SDS011;9680;52.520;13.332;2024-03-22T00:48:11;19.40;;;8.40;;
19095;SDS011;9680;52.520;13.332;2024-03-22T00:50:38;19.10;;;8.17;;
19095;SDS011;9680;52.520;13.332;2024-03-22T00:53:04;17.87;;;7.57;;
19095;SDS011;9680;52.520;13.332;2024-03-22T00:55:32;20.43;;;8.57;;
19095;SDS011;9680;52.520;13.332;2024-03-22T00:57:58;17.03;;;7.77;;
19095;SDS011;9680;52.520;13.332;2024-03-22T01:00:25;19.87;;;8.40;;
19095;SDS011;9680;52.520;13.332;2024-03-22T01:02:50;18.77;;;7.93;;
19095;SDS011;9680;52.520;13.332;2024-03-22T01:05:17;18.83;;;7.90;;
19095;SDS011;9680;52.520;13.332;2024-03-22T01:07:43;20.43;;;8.50;;
19095;SDS011;9680;52.520;13.332;2024-03-22T01:10:10;19.73;;;8.40;;
19095;SDS011;9680;52.520;13.332;2024-03-22T01:12:38;20.70;;;8.10;;
19095;SDS011;9680;52.520;13.332;2024-03-22T01:15:05;18.70;;;7.90;;
19095;SDS011;9680;52.520;13.332;2024-03-22T01:17:32;19.90;;;8.10;;
19095;SDS011;9680;52.520;13.332;2024-03-22T01:19:58;20.27;;;8.30;;
19095;SDS011;9680;52.520;13.332;2024-03-22T01:22:24;19.23;;;8.37;;
19095;SDS011;9680;52.520;13.332;2024-03-22T01:24:51;20.27;;;8.53;;
19095;SDS011;9680;52.520;13.332;2024-03-22T01:27:16;19.70;;;8.43;;
19095;SDS011;9680;52.520;13.332;2024-03-22T01:29:45;19.30;;;8.03;;
19095;SDS011;9680;52.520;13.332;2024-03-22T01:32:11;20.27;;;8.40;;
19095;SDS011;9680;52.520;13.332;2024-03-22T01:34:37;22.07;;;8.27;;
19095;SDS011;9680;52.520;13.332;2024-03-22T01:37:03;19.10;;;8.40;;
19095;SDS011;9680;52.520;13.332;2024-03-22T01:39:30;20.73;;;8.23;;
19095;SDS011;9680;52.520;13.332;2024-03-22T01:41:55;19.17;;;8.23;;
19095;SDS011;9680;52.520;13.332;2024-03-22T01:44:26;19.90;;;8.47;;
19095;SDS011;9680;52.520;13.332;2024-03-22T01:46:54;22.27;;;8.47;;
19095;SDS011;9680;52.520;13.332;2024-03-22T01:49:21;22.23;;;7.93;;
19095;SDS011;9680;52.520;13.332;2024-03-22T01:51:46;20.07;;;8.00;;
19095;SDS011;9680;52.520;13.332;2024-03-22T01:54:14;18.97;;;7.90;;
19095;SDS011;9680;52.520;13.332;2024-03-22T01:56:42;18.23;;;7.47;;
19095;SDS011;9680;52.520;13.332;2024-03-22T01:59:08;21.00;;;8.10;;
19095;SDS011;9680;52.520;13.332;2024-03-22T02:01:35;21.03;;;7.70;;
19095;SDS011;9680;52.520;13.332;2024-03-22T02:04:02;18.63;;;7.80;;
19095;SDS011;9680;52.520;13.332;2024-03-22T02:06:29;19.30;;;8.33;;
19095;SDS011;9680;52.520;13.332;2024-03-22T02:08:55;20.10;;;8.50;;
19095;SDS011;9680;52.520;13.332;2024-03-22T02:11:23;21.70;;;8.37;;
19095;SDS011;9680;52.520;13.332;2024-03-22T02:13:49;17.00;;;7.97;;
19095;SDS011;9680;52.520;13.332;2024-03-22T02:16:15;20.57;;;7.80;;
19095;SDS011;9680;52.520;13.332;2024-03-22T02:18:41;21.43;;;8.63;;
19095;SDS011;9680;52.520;13.332;2024-03-22T02:21:10;21.07;;;7.63;;
19095;SDS011;9680;52.520;13.332;2024-03-22T02:23:38;16.80;;;7.43;;
19095;SDS011;9680;52.520;13.332;2024-03-22T02:26:05;20.53;;;7.63;;
19095;SDS011;9680;52.520;13.332;2024-03-22T02:28:32;19.70;;;7.60;;
19095;SDS011;9680;52.520;13.332;2024-03-22T02:31:01;19.30;;;7.80;;
19095;SDS011;9680;52.520;13.332;2024-03-22T02:33:27;19.47;;;7.10;;
19095;SDS011;9680;52.520;13.332;2024-03-22T02:35:53;21.33;;;7.93;;
19095;SDS011;9680;52.520;13.332;2024-03-22T02:38:19;20.10;;;7.57;;
19095;SDS011;9680;52.520;13.332;2024-03-22T02:40:47;21.63;;;8.07;;
19095;SDS011;9680;52.520;13.332;2024-03-22T02:43:14;18.23;;;7.33;;
19095;SDS011;9680;52.520;13.332;2024-03-22T02:45:42;21.73;;;7.67;;
19095;SDS011;9680;52.520;13.332;2024-03-22T02:48:08;21.13;;;7.90;;
19095;SDS011;9680;52.520;13.332;2024-03-22T02:50:35;18.27;;;7.53;;
19095;SDS011;9680;52.520;13.332;2024-03-22T02:53:01;19.87;;;7.80;;
19095;SDS011;9680;52.520;13.332;2024-03-22T02:55:27;19.83;;;7.40;;
19095;SDS011;9680;52.520;13.332;2024-03-22T02:57:55;22.67;;;8.27;;
19095;SDS011;9680;52.520;13.332;2024-03-22T03:00:23;20.57;;;7.87;;
19095;SDS011;9680;52.520;13.332;2024-03-22T03:02:49;24.13;;;8.13;;
19095;SDS011;9680;52.520;13.332;2024-03-22T03:05:15;21.47;;;7.53;;
19095;SDS011;9680;52.520;13.332;2024-03-22T03:07:41;19.23;;;7.60;;
19095;SDS011;9680;52.520;13.332;2024-03-22T03:10:08;19.17;;;7.57;;
19095;SDS011;9680;52.520;13.332;2024-03-22T03:12:34;19.20;;;7.43;;
19095;SDS011;9680;52.520;13.332;2024-03-22T03:15:02;19.43;;;8.13;;
19095;SDS011;9680;52.520;13.332;2024-03-22T03:17:28;18.87;;;7.67;;
19095;SDS011;9680;52.520;13.332;2024-03-22T03:19:54;18.20;;;7.40;;
19095;SDS011;9680;52.520;13.332;2024-03-22T03:22:20;18.13;;;6.97;;
19095;SDS011;9680;52.520;13.332;2024-03-22T03:24:47;18.33;;;7.27;;
19095;SDS011;9680;52.520;13.332;2024-03-22T03:27:12;17.53;;;7.30;;
19095;SDS011;9680;52.520;13.332;2024-03-22T03:29:39;19.80;;;7.73;;
19095;SDS011;9680;52.520;13.332;2024-03-22T03:32:06;21.50;;;7.83;;
19095;SDS011;9680;52.520;13.332;2024-03-22T03:34:33;21.97;;;8.00;;
19095;SDS011;9680;52.520;13.332;2024-03-22T03:36:59;21.57;;;7.40;;
19095;SDS011;9680;52.520;13.332;2024-03-22T03:39:26;23.10;;;7.63;;
19095;SDS011;9680;52.520;13.332;2024-03-22T03:41:52;18.23;;;6.83;;
19095;SDS011;9680;52.520;13.332;2024-03-22T03:44:19;18.30;;;7.47;;
19095;SDS011;9680;52.520;13.332;2024-03-22T03:46:44;21.17;;;7.73;;
19095;SDS011;9680;52.520;13.332;2024-03-22T03:49:12;19.33;;;7.37;;
19095;SDS011;9680;52.520;13.332;2024-03-22T03:51:38;21.10;;;7.07;;
19095;SDS011;9680;52.520;13.332;2024-03-22T03:54:05;20.60;;;6.90;;
19095;SDS011;9680;52.520;13.332;2024-03-22T03:56:30;19.40;;;7.37;;
19095;SDS011;9680;52.520;13.332;2024-03-22T03:58:57;20.53;;;7.67;;
19095;SDS011;9680;52.520;13.332;2024-03-22T04:01:23;17.17;;;7.10;;
19095;SDS011;9680;52.520;13.332;2024-03-22T04:03:50;18.20;;;7.60;;
19095;SDS011;9680;52.520;13.332;2024-03-22T04:06:17;19.40;;;7.43;;
19095;SDS011;9680;52.520;13.332;2024-03-22T04:08:43;17.13;;;6.83;;
19095;SDS011;9680;52.520;13.332;2024-03-22T04:11:09;19.20;;;7.60;;
19095;SDS011;9680;52.520;13.332;2024-03-22T04:13:36;20.23;;;6.63;;
19095;SDS011;9680;52.520;13.332;2024-03-22T04:16:02;16.57;;;6.33;;
19095;SDS011;9680;52.520;13.332;2024-03-22T04:18:30;17.57;;;7.10;;
19095;SDS011;9680;52.520;13.332;2024-03-22T04:20:56;15.63;;;6.57;;
19095;SDS011;9680;52.520;13.332;2024-03-22T04:23:25;21.27;;;7.37;;
19095;SDS011;9680;52.520;13.332;2024-03-22T04:25:51;19.33;;;6.70;;
19095;SDS011;9680;52.520;13.332;2024-03-22T04:28:19;19.07;;;6.77;;
19095;SDS011;9680;52.520;13.332;2024-03-22T04:30:53;17.80;;;7.47;;
19095;SDS011;9680;52.520;13.332;2024-03-22T04:33:20;21.37;;;6.67;;
19095;SDS011;9680;52.520;13.332;2024-03-22T04:35:46;15.90;;;6.37;;
19095;SDS011;9680;52.520;13.332;2024-03-22T04:38:13;17.93;;;7.00;;
19095;SDS011;9680;52.520;13.332;2024-03-22T04:40:41;19.70;;;6.70;;
19095;SDS011;9680;52.520;13.332;2024-03-22T04:43:08;14.03;;;6.40;;
19095;SDS011;9680;52.520;13.332;2024-03-22T04:45:35;19.97;;;6.73;;
19095;SDS011;9680;52.520;13.332;2024-03-22T04:48:01;17.97;;;7.33;;
19095;SDS011;9680;52.520;13.332;2024-03-22T04:50:29;15.87;;;6.47;;
19095;SDS011;9680;52.520;13.332;2024-03-22T04:52:56;14.63;;;5.67;;
19095;SDS011;9680;52.520;13.332;2024-03-22T04:55:22;14.83;;;6.13;;
19095;SDS011;9680;52.520;13.332;2024-03-22T04:57:51;19.20;;;6.73;;
19095;SDS011;9680;52.520;13.332;2024-03-22T05:00:17;18.60;;;6.57;;
19095;SDS011;9680;52.520;13.332;2024-03-22T05:02:43;16.77;;;6.47;;
19095;SDS011;9680;52.520;13.332;2024-03-22T05:05:09;16.50;;;6.87;;
19095;SDS011;9680;52.520;13.332;2024-03-22T05:07:36;16.03;;;6.83;;
19095;SDS011;9680;52.520;13.332;2024-03-22T05:10:02;15.03;;;6.47;;
19095;SDS011;9680;52.520;13.332;2024-03-22T05:12:29;14.30;;;6.23;;
19095;SDS011;9680;52.520;13.332;2024-03-22T05:14:56;16.90;;;6.33;;
19095;SDS011;9680;52.520;13.332;2024-03-22T05:17:23;14.43;;;6.10;;
19095;SDS011;9680;52.520;13.332;2024-03-22T05:19:49;18.13;;;6.23;;
19095;SDS011;9680;52.520;13.332;2024-03-22T05:22:15;14.43;;;6.07;;
19095;SDS011;9680;52.520;13.332;2024-03-22T05:24:41;14.23;;;6.03;;
19095;SDS011;9680;52.520;13.332;2024-03-22T05:27:07;17.93;;;6.80;;
19095;SDS011;9680;52.520;13.332;2024-03-22T05:29:33;18.60;;;6.77;;
19095;SDS011;9680;52.520;13.332;2024-03-22T05:32:01;18.07;;;7.27;;
19095;SDS011;9680;52.520;13.332;2024-03-22T05:34:28;18.27;;;7.33;;
19095;SDS011;9680;52.520;13.332;2024-03-22T05:36:55;18.33;;;6.83;;
19095;SDS011;9680;52.520;13.332;2024-03-22T05:39:21;16.73;;;6.30;;
19095;SDS011;9680;52.520;13.332;2024-03-22T05:41:47;16.60;;;6.40;;
19095;SDS011;9680;52.520;13.332;2024-03-22T05:44:13;15.13;;;6.57;;
19095;SDS011;9680;52.520;13.332;2024-03-22T05:46:39;18.70;;;6.67;;
19095;SDS011;9680;52.520;13.332;2024-03-22T05:49:06;17.87;;;6.80;;
19095;SDS011;9680;52.520;13.332;2024-03-22T05:51:33;18.77;;;6.87;;
19095;SDS011;9680;52.520;13.332;2024-03-22T05:53:59;21.67;;;7.60;;
19095;SDS011;9680;52.520;13.332;2024-03-22T05:56:26;17.33;;;6.53;;
19095;SDS011;9680;52.520;13.332;2024-03-22T05:58:52;18.70;;;6.90;;
19095;SDS011;9680;52.520;13.332;2024-03-22T06:01:19;20.07;;;7.10;;
19095;SDS011;9680;52.520;13.332;2024-03-22T06:03:44;22.27;;;8.30;;
19095;SDS011;9680;52.520;13.332;2024-03-22T06:06:12;18.93;;;7.00;;
19095;SDS011;9680;52.520;13.332;2024-03-22T06:08:38;20.53;;;7.40;;
19095;SDS011;9680;52.520;13.332;2024-03-22T06:11:07;20.33;;;7.77;;
19095;SDS011;9680;52.520;13.332;2024-03-22T06:13:32;21.87;;;7.47;;
19095;SDS011;9680;52.520;13.332;2024-03-22T06:16:13;21.02;;;7.63;;
19095;SDS011;9680;52.520;13.332;2024-03-22T06:18:40;18.97;;;7.43;;
19095;SDS011;9680;52.520;13.332;2024-03-22T06:21:06;19.02;;;6.43;;
19095;SDS011;9680;52.520;13.332;2024-03-22T06:23:34;19.37;;;7.83;;
19095;SDS011;9680;52.520;13.332;2024-03-22T06:25:59;18.65;;;7.43;;
19095;SDS011;9680;52.520;13.332;2024-03-22T06:28:27;19.40;;;7.77;;
19095;SDS011;9680;52.520;13.332;2024-03-22T06:30:53;22.63;;;8.17;;
19095;SDS011;9680;52.520;13.332;2024-03-22T06:33:21;17.47;;;7.33;;
19095;SDS011;9680;52.520;13.332;2024-03-22T06:35:47;22.73;;;8.07;;
19095;SDS011;9680;52.520;13.332;2024-03-22T06:38:13;19.30;;;7.53;;
19095;SDS011;9680;52.520;13.332;2024-03-22T06:40:45;23.70;;;8.20;;
19095;SDS011;9680;52.520;13.332;2024-03-22T06:43:12;19.00;;;7.50;;
19095;SDS011;9680;52.520;13.332;2024-03-22T06:45:39;24.15;;;8.10;;
19095;SDS011;9680;52.520;13.332;2024-03-22T06:48:06;21.97;;;8.27;;
19095;SDS011;9680;52.520;13.332;2024-03-22T06:50:32;23.13;;;7.75;;
19095;SDS011;9680;52.520;13.332;2024-03-22T06:52:59;20.53;;;8.10;;
19095;SDS011;9680;52.520;13.332;2024-03-22T06:55:24;20.13;;;7.60;;
19095;SDS011;9680;52.520;13.332;2024-03-22T06:57:53;24.67;;;8.13;;
19095;SDS011;9680;52.520;13.332;2024-03-22T07:00:18;20.40;;;7.90;;
19095;SDS011;9680;52.520;13.332;2024-03-22T07:02:45;26.13;;;8.05;;
19095;SDS011;9680;52.520;13.332;2024-03-22T07:05:11;22.60;;;8.70;;
19095;SDS011;9680;52.520;13.332;2024-03-22T07:07:38;21.90;;;8.05;;
19095;SDS011;9680;52.520;13.332;2024-03-22T07:10:04;19.80;;;7.80;;
19095;SDS011;9680;52.520;13.332;2024-03-22T07:12:31;25.25;;;8.57;;
19095;SDS011;9680;52.520;13.332;2024-03-22T07:14:58;23.17;;;8.65;;
19095;SDS011;9680;52.520;13.332;2024-03-22T07:17:25;17.63;;;8.00;;
19095;SDS011;9680;52.520;13.332;2024-03-22T07:19:51;21.30;;;7.80;;
19095;SDS011;9680;52.520;13.332;2024-03-22T07:22:18;24.33;;;8.80;;
19095;SDS011;9680;52.520;13.332;2024-03-22T07:24:44;18.93;;;7.67;;
19095;SDS011;9680;52.520;13.332;2024-03-22T07:27:11;22.02;;;8.43;;
19095;SDS011;9680;52.520;13.332;2024-03-22T07:29:37;23.10;;;7.97;;
19095;SDS011;9680;52.520;13.332;2024-03-22T07:32:05;20.92;;;8.40;;
19095;SDS011;9680;52.520;13.332;2024-03-22T07:34:31;20.83;;;8.73;;
19095;SDS011;9680;52.520;13.332;2024-03-22T07:36:58;23.52;;;8.82;;
19095;SDS011;9680;52.520;13.332;2024-03-22T07:39:24;21.80;;;8.95;;
19095;SDS011;9680;52.520;13.332;2024-03-22T07:41:50;21.15;;;8.63;;
19095;SDS011;9680;52.520;13.332;2024-03-22T07:44:16;22.45;;;8.65;;
19095;SDS011;9680;52.520;13.332;2024-03-22T07:46:45;24.40;;;9.20;;
19095;SDS011;9680;52.520;13.332;2024-03-22T07:49:12;23.08;;;8.98;;
19095;SDS011;9680;52.520;13.332;2024-03-22T07:51:39;22.00;;;8.95;;
19095;SDS011;9680;52.520;13.332;2024-03-22T07:54:05;24.50;;;9.15;;
19095;SDS011;9680;52.520;13.332;2024-03-22T07:56:32;21.17;;;8.98;;
19095;SDS011;9680;52.520;13.332;2024-03-22T07:58:57;23.35;;;9.73;;
19095;SDS011;9680;52.520;13.332;2024-03-22T08:01:25;21.45;;;8.65;;
19095;SDS011;9680;52.520;13.332;2024-03-22T08:03:50;22.88;;;9.23;;
19095;SDS011;9680;52.520;13.332;2024-03-22T08:06:19;20.40;;;8.90;;
19095;SDS011;9680;52.520;13.332;2024-03-22T08:08:44;31.35;;;9.63;;
19095;SDS011;9680;52.520;13.332;2024-03-22T08:11:11;25.58;;;9.27;;
19095;SDS011;9680;52.520;13.332;2024-03-22T08:13:36;23.40;;;8.90;;
19095;SDS011;9680;52.520;13.332;2024-03-22T08:16:03;24.15;;;9.68;;
19095;SDS011;9680;52.520;13.332;2024-03-22T08:18:30;21.17;;;9.35;;
19095;SDS011;9680;52.520;13.332;2024-03-22T08:20:57;23.13;;;9.25;;
19095;SDS011;9680;52.520;13.332;2024-03-22T08:23:25;22.08;;;9.15;;
19095;SDS011;9680;52.520;13.332;2024-03-22T08:25:52;24.15;;;9.63;;
19095;SDS011;9680;52.520;13.332;2024-03-22T08:28:18;21.92;;;8.85;;
19095;SDS011;9680;52.520;13.332;2024-03-22T08:30:45;23.40;;;9.40;;
19095;SDS011;9680;52.520;13.332;2024-03-22T08:33:10;28.85;;;9.65;;
19095;SDS011;9680;52.520;13.332;2024-03-22T08:35:37;20.92;;;9.38;;
19095;SDS011;9680;52.520;13.332;2024-03-22T08:38:03;24.42;;;10.13;;
19095;SDS011;9680;52.520;13.332;2024-03-22T08:40:36;31.25;;;10.52;;
19095;SDS011;9680;52.520;13.332;2024-03-22T08:43:02;23.15;;;10.10;;
19095;SDS011;9680;52.520;13.332;2024-03-22T08:45:29;25.73;;;9.48;;
19095;SDS011;9680;52.520;13.332;2024-03-22T08:47:55;23.05;;;9.77;;
19095;SDS011;9680;52.520;13.332;2024-03-22T08:50:22;28.17;;;9.57;;
19095;SDS011;9680;52.520;13.332;2024-03-22T08:52:48;24.70;;;9.95;;
19095;SDS011;9680;52.520;13.332;2024-03-22T08:55:14;23.77;;;9.63;;
19095;SDS011;9680;52.520;13.332;2024-03-22T08:57:42;21.33;;;9.07;;
19095;SDS011;9680;52.520;13.332;2024-03-22T09:00:09;25.58;;;10.30;;
19095;SDS011;9680;52.520;13.332;2024-03-22T09:02:36;27.83;;;10.27;;
19095;SDS011;9680;52.520;13.332;2024-03-22T09:05:03;27.23;;;9.60;;
19095;SDS011;9680;52.520;13.332;2024-03-22T09:07:32;26.02;;;10.13;;
19095;SDS011;9680;52.520;13.332;2024-03-22T09:10:01;23.33;;;9.55;;
19095;SDS011;9680;52.520;13.332;2024-03-22T09:12:28;23.35;;;9.38;;
19095;SDS011;9680;52.520;13.332;2024-03-22T09:14:55;25.60;;;9.98;;
19095;SDS011;9680;52.520;13.332;2024-03-22T09:17:22;24.88;;;9.43;;
19095;SDS011;9680;52.520;13.332;2024-03-22T09:19:48;24.45;;;9.98;;
19095;SDS011;9680;52.520;13.332;2024-03-22T09:22:14;24.60;;;9.40;;
19095;SDS011;9680;52.520;13.332;2024-03-22T09:24:40;24.02;;;10.30;;
19095;SDS011;9680;52.520;13.332;2024-03-22T09:27:07;23.80;;;9.55;;
19095;SDS011;9680;52.520;13.332;2024-03-22T09:29:34;25.40;;;9.50;;
19095;SDS011;9680;52.520;13.332;2024-03-22T09:32:02;24.95;;;10.15;;
19095;SDS011;9680;52.520;13.332;2024-03-22T09:34:28;23.33;;;9.45;;
19095;SDS011;9680;52.520;13.332;2024-03-22T09:36:56;24.27;;;9.25;;
19095;SDS011;9680;52.520;13.332;2024-03-22T09:39:22;24.23;;;10.13;;
19095;SDS011;9680;52.520;13.332;2024-03-22T09:41:50;22.35;;;9.85;;
19095;SDS011;9680;52.520;13.332;2024-03-22T09:44:18;25.35;;;9.75;;
19095;SDS011;9680;52.520;13.332;2024-03-22T09:46:44;20.80;;;9.60;;
19095;SDS011;9680;52.520;13.332;2024-03-22T09:49:14;22.33;;;9.90;;
19095;SDS011;9680;52.520;13.332;2024-03-22T09:51:41;20.30;;;9.05;;
19095;SDS011;9680;52.520;13.332;2024-03-22T09:54:08;24.60;;;10.43;;
19095;SDS011;9680;52.520;13.332;2024-03-22T09:56:34;20.00;;;8.63;;
19095;SDS011;9680;52.520;13.332;2024-03-22T09:59:04;23.02;;;9.75;;
19095;SDS011;9680;52.520;13.332;2024-03-22T10:01:31;21.00;;;8.85;;
19095;SDS011;9680;52.520;13.332;2024-03-22T10:03:59;24.67;;;9.20;;
19095;SDS011;9680;52.520;13.332;2024-03-22T10:06:26;25.98;;;9.88;;
19095;SDS011;9680;52.520;13.332;2024-03-22T10:08:53;23.83;;;9.43;;
19095;SDS011;9680;52.520;13.332;2024-03-22T10:11:19;33.33;;;10.10;;
19095;SDS011;9680;52.520;13.332;2024-03-22T10:13:46;22.80;;;8.52;;
19095;SDS011;9680;52.520;13.332;2024-03-22T10:16:16;22.65;;;9.40;;
19095;SDS011;9680;52.520;13.332;2024-03-22T10:18:44;21.70;;;8.70;;
19095;SDS011;9680;52.520;13.332;2024-03-22T10:21:10;18.92;;;8.68;;
19095;SDS011;9680;52.520;13.332;2024-03-22T10:23:38;21.35;;;8.98;;
19095;SDS011;9680;52.520;13.332;2024-03-22T10:26:04;19.83;;;8.52;;
19095;SDS011;9680;52.520;13.332;2024-03-22T10:28:31;19.90;;;8.52;;
19095;SDS011;9680;52.520;13.332;2024-03-22T10:30:57;24.65;;;9.30;;
19095;SDS011;9680;52.520;13.332;2024-03-22T10:33:24;20.27;;;8.80;;
19095;SDS011;9680;52.520;13.332;2024-03-22T10:35:52;19.52;;;8.60;;
19095;SDS011;9680;52.520;13.332;2024-03-22T10:38:19;20.90;;;8.43;;
19095;SDS011;9680;52.520;13.332;2024-03-22T10:40:47;19.48;;;8.98;;
19095;SDS011;9680;52.520;13.332;2024-03-22T10:43:15;28.80;;;8.15;;
19095;SDS011;9680;52.520;13.332;2024-03-22T10:45:41;17.40;;;8.07;;
19095;SDS011;9680;52.520;13.332;2024-03-22T10:48:09;17.55;;;7.95;;
19095;SDS011;9680;52.520;13.332;2024-03-22T10:50:36;18.63;;;7.93;;
19095;SDS011;9680;52.520;13.332;2024-03-22T10:53:06;19.88;;;8.32;;
19095;SDS011;9680;52.520;13.332;2024-03-22T10:55:35;22.48;;;8.70;;
19095;SDS011;9680;52.520;13.332;2024-03-22T10:58:07;20.23;;;8.52;;
19095;SDS011;9680;52.520;13.332;2024-03-22T11:00:41;19.85;;;8.18;;
19095;SDS011;9680;52.520;13.332;2024-03-22T11:03:09;22.67;;;8.48;;
19095;SDS011;9680;52.520;13.332;2024-03-22T11:05:44;17.48;;;7.75;;
19095;SDS011;9680;52.520;13.332;2024-03-22T11:08:11;16.52;;;7.80;;
19095;SDS011;9680;52.520;13.332;2024-03-22T11:10:37;17.38;;;7.82;;
19095;SDS011;9680;52.520;13.332;2024-03-22T11:13:04;23.25;;;7.38;;
19095;SDS011;9680;52.520;13.332;2024-03-22T11:15:33;17.85;;;7.53;;
19095;SDS011;9680;52.520;13.332;2024-03-22T11:18:00;18.58;;;7.70;;
19095;SDS011;9680;52.520;13.332;2024-03-22T11:20:26;18.02;;;7.63;;
19095;SDS011;9680;52.520;13.332;2024-03-22T11:22:53;23.52;;;8.63;;
19095;SDS011;9680;52.520;13.332;2024-03-22T11:25:19;19.88;;;7.80;;
19095;SDS011;9680;52.520;13.332;2024-03-22T11:27:46;19.60;;;7.93;;
19095;SDS011;9680;52.520;13.332;2024-03-22T11:30:12;19.25;;;8.00;;
19095;SDS011;9680;52.520;13.332;2024-03-22T11:32:41;18.40;;;7.78;;
19095;SDS011;9680;52.520;13.332;2024-03-22T11:35:09;19.17;;;8.55;;
19095;SDS011;9680;52.520;13.332;2024-03-22T11:37:36;22.10;;;8.05;;
19095;SDS011;9680;52.520;13.332;2024-03-22T11:40:04;18.58;;;7.80;;
19095;SDS011;9680;52.520;13.332;2024-03-22T11:42:32;19.25;;;7.80;;
19095;SDS011;9680;52.520;13.332;2024-03-22T11:45:00;22.80;;;8.18;;
19095;SDS011;9680;52.520;13.332;2024-03-22T11:54:58;21.25;;;8.20;;
19095;SDS011;9680;52.520;13.332;2024-03-22T11:57:24;20.58;;;8.00;;
19095;SDS011;9680;52.520;13.332;2024-03-22T11:59:51;19.90;;;8.02;;
19095;SDS011;9680;52.520;13.332;2024-03-22T12:02:18;19.98;;;8.50;;
19095;SDS011;9680;52.520;13.332;2024-03-22T12:04:45;23.13;;;8.63;;
19095;SDS011;9680;52.520;13.332;2024-03-22T12:07:13;19.40;;;8.68;;
19095;SDS011;9680;52.520;13.332;2024-03-22T12:09:40;20.65;;;8.27;;
19095;SDS011;9680;52.520;13.332;2024-03-22T12:12:10;23.13;;;8.70;;
19095;SDS011;9680;52.520;13.332;2024-03-22T12:14:39;21.33;;;8.85;;
19095;SDS011;9680;52.520;13.332;2024-03-22T12:17:07;22.55;;;8.43;;
19095;SDS011;9680;52.520;13.332;2024-03-22T12:19:33;22.33;;;8.88;;
19095;SDS011;9680;52.520;13.332;2024-03-22T12:22:01;20.88;;;8.18;;
19095;SDS011;9680;52.520;13.332;2024-03-22T12:24:27;22.88;;;9.23;;
19095;SDS011;9680;52.520;13.332;2024-03-22T12:26:54;23.63;;;8.45;;
19095;SDS011;9680;52.520;13.332;2024-03-22T12:29:23;24.92;;;9.50;;
19095;SDS011;9680;52.520;13.332;2024-03-22T12:31:50;21.17;;;8.80;;
19095;SDS011;9680;52.520;13.332;2024-03-22T12:34:17;21.40;;;8.93;;
19095;SDS011;9680;52.520;13.332;2024-03-22T12:36:50;21.48;;;8.75;;
19095;SDS011;9680;52.520;13.332;2024-03-22T12:39:28;21.33;;;8.48;;
19095;SDS011;9680;52.520;13.332;2024-03-22T12:41:55;22.35;;;8.88;;
19095;SDS011;9680;52.520;13.332;2024-03-22T12:44:22;25.85;;;9.70;;
19095;SDS011;9680;52.520;13.332;2024-03-22T12:46:49;21.27;;;8.80;;
19095;SDS011;9680;52.520;13.332;2024-03-22T12:49:16;24.02;;;9.02;;
19095;SDS011;9680;52.520;13.332;2024-03-22T12:51:44;23.25;;;8.73;;
19095;SDS011;9680;52.520;13.332;2024-03-22T12:54:11;25.85;;;9.55;;
19095;SDS011;9680;52.520;13.332;2024-03-22T12:56:39;25.52;;;10.02;;
19095;SDS011;9680;52.520;13.332;2024-03-22T12:59:05;23.55;;;9.20;;
19095;SDS011;9680;52.520;13.332;2024-03-22T13:01:34;25.60;;;8.88;;
19095;SDS011;9680;52.520;13.332;2024-03-22T13:04:02;22.42;;;8.80;;
19095;SDS011;9680;52.520;13.332;2024-03-22T13:06:32;25.23;;;9.00;;
19095;SDS011;9680;52.520;13.332;2024-03-22T13:09:00;24.02;;;9.52;;
19095;SDS011;9680;52.520;13.332;2024-03-22T13:11:29;26.42;;;8.90;;
19095;SDS011;9680;52.520;13.332;2024-03-22T13:13:57;25.67;;;9.45;;
19095;SDS011;9680;52.520;13.332;2024-03-22T13:16:26;26.77;;;9.18;;
19095;SDS011;9680;52.520;13.332;2024-03-22T13:18:53;23.77;;;8.95;;
19095;SDS011;9680;52.520;13.332;2024-03-22T13:21:20;18.58;;;8.07;;
19095;SDS011;9680;52.520;13.332;2024-03-22T13:23:52;19.75;;;7.65;;
19095;SDS011;9680;52.520;13.332;2024-03-22T13:26:28;18.17;;;7.68;;
19095;SDS011;9680;52.520;13.332;2024-03-22T13:28:54;20.42;;;7.63;;
19095;SDS011;9680;52.520;13.332;2024-03-22T13:31:24;18.67;;;7.43;;
19095;SDS011;9680;52.520;13.332;2024-03-22T13:34:34;20.05;;;7.68;;
19095;SDS011;9680;52.520;13.332;2024-03-22T13:37:01;18.25;;;7.60;;
19095;SDS011;9680;52.520;13.332;2024-03-22T13:39:28;18.33;;;7.10;;
19095;SDS011;9680;52.520;13.332;2024-03-22T13:41:56;20.88;;;7.43;;
19095;SDS011;9680;52.520;13.332;2024-03-22T13:44:25;15.30;;;6.75;;
19095;SDS011;9680;52.520;13.332;2024-03-22T13:46:53;19.90;;;6.53;;
19095;SDS011;9680;52.520;13.332;2024-03-22T13:49:19;15.57;;;6.35;;
19095;SDS011;9680;52.520;13.332;2024-03-22T13:52:01;17.77;;;6.68;;
19095;SDS011;9680;52.520;13.332;2024-03-22T13:54:31;15.80;;;6.35;;
19095;SDS011;9680;52.520;13.332;2024-03-22T13:56:57;15.75;;;6.07;;
19095;SDS011;9680;52.520;13.332;2024-03-22T13:59:24;14.50;;;6.03;;
19095;SDS011;9680;52.520;13.332;2024-03-22T14:01:51;14.40;;;5.85;;
19095;SDS011;9680;52.520;13.332;2024-03-22T14:04:26;16.27;;;6.07;;
19095;SDS011;9680;52.520;13.332;2024-03-22T14:06:54;15.90;;;5.80;;
19095;SDS011;9680;52.520;13.332;2024-03-22T14:09:23;15.23;;;6.15;;
19095;SDS011;9680;52.520;13.332;2024-03-22T14:12:00;15.57;;;5.75;;
19095;SDS011;9680;52.520;13.332;2024-03-22T14:14:37;15.10;;;6.45;;
19095;SDS011;9680;52.520;13.332;2024-03-22T14:17:03;14.50;;;5.50;;
19095;SDS011;9680;52.520;13.332;2024-03-22T14:19:30;15.80;;;5.95;;
19095;SDS011;9680;52.520;13.332;2024-03-22T14:22:02;15.68;;;6.25;;
19095;SDS011;9680;52.520;13.332;2024-03-22T14:24:31;18.42;;;6.03;;
19095;SDS011;9680;52.520;13.332;2024-03-22T14:26:57;22.20;;;7.35;;
19095;SDS011;9680;52.520;13.332;2024-03-22T14:29:24;18.17;;;6.93;;
19095;SDS011;9680;52.520;13.332;2024-03-22T14:31:50;15.75;;;7.13;;
19095;SDS011;9680;52.520;13.332;2024-03-22T14:34:19;16.88;;;7.22;;
19095;SDS011;9680;52.520;13.332;2024-03-22T14:36:45;17.58;;;7.10;;
19095;SDS011;9680;52.520;13.332;2024-03-22T14:39:12;19.20;;;7.88;;
19095;SDS011;9680;52.520;13.332;2024-03-22T14:41:43;19.95;;;7.85;;